sensor_id;sensor_type;location;lat;lon;timestamp;temperature;humidity
46356;DHT22;32066;49.474;11.106;2023-03-14T00:00:10;13.20;99.90
46356;DHT22;32066;49.474;11.106;2023-03-14T00:02:40;13.20;99.90
46356;DHT22;32066;49.474;11.106;2023-03-14T00:05:10;13.20;99.90
46356;DHT22;32066;49.474;11.106;2023-03-14T00:07:39;13.10;99.90
46356;DHT22;32066;49.474;11.106;2023-03-14T00:10:11;13.20;99.90
46356;DHT22;32066;49.474;11.106;2023-03-14T00:12:40;13.20;99.90
46356;DHT22;32066;49.474;11.106;2023-03-14T00:15:12;13.20;99.90
46356;DHT22;32066;49.474;11.106;2023-03-14T00:17:43;13.20;99.90
46356;DHT22;32066;49.474;11.106;2023-03-14T00:20:12;13.20;99.90
46356;DHT22;32066;49.474;11.106;2023-03-14T00:22:41;13.10;99.90
46356;DHT22;32066;49.474;11.106;2023-03-14T00:25:11;13.10;99.90
46356;DHT22;32066;49.474;11.106;2023-03-14T00:27:39;13.20;99.90
46356;DHT22;32066;49.474;11.106;2023-03-14T00:30:11;13.10;99.90
46356;DHT22;32066;49.474;11.106;2023-03-14T00:32:40;13.10;99.90
46356;DHT22;32066;49.474;11.106;2023-03-14T00:35:09;13.10;99.90
46356;DHT22;32066;49.474;11.106;2023-03-14T00:37:37;13.10;99.90
46356;DHT22;32066;49.474;11.106;2023-03-14T00:40:08;13.00;99.90
46356;DHT22;32066;49.474;11.106;2023-03-14T00:42:37;13.10;99.90
46356;DHT22;32066;49.474;11.106;2023-03-14T00:45:06;13.10;99.90
46356;DHT22;32066;49.474;11.106;2023-03-14T00:47:38;13.10;99.90
46356;DHT22;32066;49.474;11.106;2023-03-14T00:50:11;13.10;99.90
46356;DHT22;32066;49.474;11.106;2023-03-14T00:52:39;13.10;99.90
46356;DHT22;32066;49.474;11.106;2023-03-14T00:55:09;13.20;99.90
46356;DHT22;32066;49.474;11.106;2023-03-14T00:57:37;13.20;99.90
46356;DHT22;32066;49.474;11.106;2023-03-14T01:00:08;13.20;99.90
46356;DHT22;32066;49.474;11.106;2023-03-14T01:02:40;13.10;99.90
46356;DHT22;32066;49.474;11.106;2023-03-14T01:05:09;13.20;99.90
46356;DHT22;32066;49.474;11.106;2023-03-14T01:07:38;13.20;99.90
46356;DHT22;32066;49.474;11.106;2023-03-14T01:10:08;13.10;99.90
46356;DHT22;32066;49.474;11.106;2023-03-14T01:12:37;13.10;99.90
46356;DHT22;32066;49.474;11.106;2023-03-14T01:15:07;13.00;99.90
46356;DHT22;32066;49.474;11.106;2023-03-14T01:17:35;13.00;99.90
46356;DHT22;32066;49.474;11.106;2023-03-14T01:20:10;13.00;99.90
46356;DHT22;32066;49.474;11.106;2023-03-14T01:22:40;12.90;99.90
46356;DHT22;32066;49.474;11.106;2023-03-14T01:25:11;12.90;99.90
46356;DHT22;32066;49.474;11.106;2023-03-14T01:27:40;12.90;99.90
46356;DHT22;32066;49.474;11.106;2023-03-14T01:30:10;12.90;99.90
46356;DHT22;32066;49.474;11.106;2023-03-14T01:32:39;13.00;99.90
46356;DHT22;32066;49.474;11.106;2023-03-14T01:35:11;12.90;99.90
46356;DHT22;32066;49.474;11.106;2023-03-14T01:37:40;12.90;99.90
46356;DHT22;32066;49.474;11.106;2023-03-14T01:40:14;12.90;99.90
46356;DHT22;32066;49.474;11.106;2023-03-14T01:42:54;12.90;99.90
46356;DHT22;32066;49.474;11.106;2023-03-14T01:48:22;12.90;99.90
46356;DHT22;32066;49.474;11.106;2023-03-14T01:50:53;13.00;99.90
46356;DHT22;32066;49.474;11.106;2023-03-14T01:53:22;13.00;99.90
46356;DHT22;32066;49.474;11.106;2023-03-14T01:55:52;13.00;99.90
46356;DHT22;32066;49.474;11.106;2023-03-14T01:58:24;12.90;99.90
46356;DHT22;32066;49.474;11.106;2023-03-14T02:00:55;13.00;99.90
46356;DHT22;32066;49.474;11.106;2023-03-14T02:03:27;13.00;99.90
46356;DHT22;32066;49.474;11.106;2023-03-14T02:06:04;13.00;99.90
46356;DHT22;32066;49.474;11.106;2023-03-14T02:08:37;12.90;99.90
46356;DHT22;32066;49.474;11.106;2023-03-14T02:11:15;12.90;99.90
46356;DHT22;32066;49.474;11.106;2023-03-14T02:13:55;12.80;99.90
46356;DHT22;32066;49.474;11.106;2023-03-14T02:16:25;12.90;99.90
46356;DHT22;32066;49.474;11.106;2023-03-14T02:19:27;12.90;99.90
46356;DHT22;32066;49.474;11.106;2023-03-14T02:22:12;12.80;99.90
46356;DHT22;32066;49.474;11.106;2023-03-14T02:25:01;12.90;99.90
46356;DHT22;32066;49.474;11.106;2023-03-14T02:27:34;12.80;99.90
46356;DHT22;32066;49.474;11.106;2023-03-14T02:30:05;12.80;99.90
46356;DHT22;32066;49.474;11.106;2023-03-14T02:32:36;12.90;99.90
46356;DHT22;32066;49.474;11.106;2023-03-14T02:35:09;12.90;99.90
46356;DHT22;32066;49.474;11.106;2023-03-14T02:37:41;12.90;99.90
46356;DHT22;32066;49.474;11.106;2023-03-14T02:40:12;12.80;99.90
46356;DHT22;32066;49.474;11.106;2023-03-14T02:42:44;12.80;99.90
46356;DHT22;32066;49.474;11.106;2023-03-14T02:45:41;12.80;99.90
46356;DHT22;32066;49.474;11.106;2023-03-14T02:48:15;12.90;99.90
46356;DHT22;32066;49.474;11.106;2023-03-14T02:50:46;12.80;99.90
46356;DHT22;32066;49.474;11.106;2023-03-14T02:53:19;12.80;99.90
46356;DHT22;32066;49.474;11.106;2023-03-14T02:55:49;12.80;99.90
46356;DHT22;32066;49.474;11.106;2023-03-14T02:58:22;12.80;99.90
46356;DHT22;32066;49.474;11.106;2023-03-14T03:00:57;12.80;99.90
46356;DHT22;32066;49.474;11.106;2023-03-14T03:03:26;12.80;99.90
46356;DHT22;32066;49.474;11.106;2023-03-14T03:05:55;12.80;99.90
46356;DHT22;32066;49.474;11.106;2023-03-14T03:08:26;12.80;99.90
46356;DHT22;32066;49.474;11.106;2023-03-14T03:10:57;12.80;99.90
46356;DHT22;32066;49.474;11.106;2023-03-14T03:13:31;12.80;99.90
46356;DHT22;32066;49.474;11.106;2023-03-14T03:16:02;12.80;99.90
46356;DHT22;32066;49.474;11.106;2023-03-14T03:18:31;12.80;99.90
46356;DHT22;32066;49.474;11.106;2023-03-14T03:21:00;12.80;99.90
46356;DHT22;32066;49.474;11.106;2023-03-14T03:23:29;12.80;99.90
46356;DHT22;32066;49.474;11.106;2023-03-14T03:25:58;12.80;99.90
46356;DHT22;32066;49.474;11.106;2023-03-14T03:28:30;12.70;99.90
46356;DHT22;32066;49.474;11.106;2023-03-14T03:31:05;12.70;99.90
46356;DHT22;32066;49.474;11.106;2023-03-14T03:33:36;12.70;99.90
46356;DHT22;32066;49.474;11.106;2023-03-14T03:36:06;12.70;99.90
46356;DHT22;32066;49.474;11.106;2023-03-14T03:38:36;12.70;99.90
46356;DHT22;32066;49.474;11.106;2023-03-14T03:41:07;12.70;99.90
46356;DHT22;32066;49.474;11.106;2023-03-14T03:43:38;12.60;99.90
46356;DHT22;32066;49.474;11.106;2023-03-14T03:46:09;12.60;99.90
46356;DHT22;32066;49.474;11.106;2023-03-14T03:48:38;12.60;99.90
46356;DHT22;32066;49.474;11.106;2023-03-14T03:51:07;12.60;99.90
46356;DHT22;32066;49.474;11.106;2023-03-14T03:53:36;12.60;99.90
46356;DHT22;32066;49.474;11.106;2023-03-14T03:56:09;12.60;99.90
46356;DHT22;32066;49.474;11.106;2023-03-14T03:58:42;12.60;99.90
46356;DHT22;32066;49.474;11.106;2023-03-14T04:01:10;12.50;99.90
46356;DHT22;32066;49.474;11.106;2023-03-14T04:03:40;12.50;99.90
46356;DHT22;32066;49.474;11.106;2023-03-14T04:06:10;12.50;99.90
46356;DHT22;32066;49.474;11.106;2023-03-14T04:08:40;12.50;99.90
46356;DHT22;32066;49.474;11.106;2023-03-14T04:11:17;12.50;99.90
46356;DHT22;32066;49.474;11.106;2023-03-14T04:13:56;12.50;99.90
46356;DHT22;32066;49.474;11.106;2023-03-14T04:16:26;12.50;99.90
46356;DHT22;32066;49.474;11.106;2023-03-14T04:19:02;12.50;99.90
46356;DHT22;32066;49.474;11.106;2023-03-14T04:21:32;12.50;99.90
46356;DHT22;32066;49.474;11.106;2023-03-14T04:24:01;12.40;99.90
46356;DHT22;32066;49.474;11.106;2023-03-14T04:26:32;12.40;99.90
46356;DHT22;32066;49.474;11.106;2023-03-14T04:29:04;12.50;99.90
46356;DHT22;32066;49.474;11.106;2023-03-14T04:31:32;12.40;99.90
46356;DHT22;32066;49.474;11.106;2023-03-14T04:34:01;12.40;99.90
46356;DHT22;32066;49.474;11.106;2023-03-14T04:36:35;12.40;99.90
46356;DHT22;32066;49.474;11.106;2023-03-14T04:39:07;12.40;99.90
46356;DHT22;32066;49.474;11.106;2023-03-14T04:41:39;12.40;99.90
46356;DHT22;32066;49.474;11.106;2023-03-14T04:44:12;12.40;99.90
46356;DHT22;32066;49.474;11.106;2023-03-14T04:46:41;12.40;99.90
46356;DHT22;32066;49.474;11.106;2023-03-14T04:49:11;12.40;99.90
46356;DHT22;32066;49.474;11.106;2023-03-14T04:51:40;12.40;99.90
46356;DHT22;32066;49.474;11.106;2023-03-14T04:54:09;12.30;99.90
46356;DHT22;32066;49.474;11.106;2023-03-14T04:56:38;12.30;99.90
46356;DHT22;32066;49.474;11.106;2023-03-14T04:59:07;12.30;99.90
46356;DHT22;32066;49.474;11.106;2023-03-14T05:01:42;12.40;99.90
46356;DHT22;32066;49.474;11.106;2023-03-14T05:04:35;12.40;99.90
46356;DHT22;32066;49.474;11.106;2023-03-14T05:07:30;12.30;99.90
46356;DHT22;32066;49.474;11.106;2023-03-14T05:10:17;12.30;99.90
46356;DHT22;32066;49.474;11.106;2023-03-14T05:13:00;12.30;99.90
46356;DHT22;32066;49.474;11.106;2023-03-14T05:16:04;12.30;99.90
46356;DHT22;32066;49.474;11.106;2023-03-14T05:18:53;12.20;99.90
46356;DHT22;32066;49.474;11.106;2023-03-14T05:21:45;12.20;99.90
46356;DHT22;32066;49.474;11.106;2023-03-14T05:24:35;12.20;99.90
46356;DHT22;32066;49.474;11.106;2023-03-14T05:27:14;12.20;99.90
46356;DHT22;32066;49.474;11.106;2023-03-14T05:29:58;12.30;99.90
46356;DHT22;32066;49.474;11.106;2023-03-14T05:33:02;12.20;99.90
46356;DHT22;32066;49.474;11.106;2023-03-14T05:36:12;12.30;99.90
46356;DHT22;32066;49.474;11.106;2023-03-14T05:38:59;12.20;99.90
46356;DHT22;32066;49.474;11.106;2023-03-14T05:41:45;12.20;99.90
46356;DHT22;32066;49.474;11.106;2023-03-14T05:44:40;12.20;99.90
46356;DHT22;32066;49.474;11.106;2023-03-14T05:47:28;12.10;99.90
46356;DHT22;32066;49.474;11.106;2023-03-14T05:50:07;12.20;99.90
46356;DHT22;32066;49.474;11.106;2023-03-14T05:52:55;12.10;99.90
46356;DHT22;32066;49.474;11.106;2023-03-14T05:55:41;12.10;99.90
46356;DHT22;32066;49.474;11.106;2023-03-14T05:58:22;12.10;99.90
46356;DHT22;32066;49.474;11.106;2023-03-14T06:01:06;12.10;99.90
46356;DHT22;32066;49.474;11.106;2023-03-14T06:03:54;12.10;99.90
46356;DHT22;32066;49.474;11.106;2023-03-14T06:06:22;12.10;99.90
46356;DHT22;32066;49.474;11.106;2023-03-14T06:08:54;12.10;99.90
46356;DHT22;32066;49.474;11.106;2023-03-14T06:11:23;12.20;99.90
46356;DHT22;32066;49.474;11.106;2023-03-14T06:13:52;12.20;99.90
46356;DHT22;32066;49.474;11.106;2023-03-14T06:16:20;12.10;99.90
46356;DHT22;32066;49.474;11.106;2023-03-14T06:18:51;12.10;99.90
46356;DHT22;32066;49.474;11.106;2023-03-14T06:21:22;12.10;99.90
46356;DHT22;32066;49.474;11.106;2023-03-14T06:23:53;12.10;99.90
46356;DHT22;32066;49.474;11.106;2023-03-14T06:26:24;12.20;99.90
46356;DHT22;32066;49.474;11.106;2023-03-14T06:28:54;12.30;99.90
46356;DHT22;32066;49.474;11.106;2023-03-14T06:31:22;12.20;99.90
46356;DHT22;32066;49.474;11.106;2023-03-14T06:33:56;12.20;99.90
46356;DHT22;32066;49.474;11.106;2023-03-14T06:36:28;12.20;99.90
46356;DHT22;32066;49.474;11.106;2023-03-14T06:39:00;12.20;99.90
46356;DHT22;32066;49.474;11.106;2023-03-14T06:41:30;12.10;99.90
46356;DHT22;32066;49.474;11.106;2023-03-14T06:44:00;12.20;99.90
46356;DHT22;32066;49.474;11.106;2023-03-14T06:46:28;12.20;99.90
46356;DHT22;32066;49.474;11.106;2023-03-14T06:48:57;12.20;99.90
46356;DHT22;32066;49.474;11.106;2023-03-14T06:51:26;12.20;99.90
46356;DHT22;32066;49.474;11.106;2023-03-14T06:53:55;12.20;99.90
46356;DHT22;32066;49.474;11.106;2023-03-14T06:56:29;12.20;99.90
46356;DHT22;32066;49.474;11.106;2023-03-14T06:58:58;12.20;99.90
46356;DHT22;32066;49.474;11.106;2023-03-14T07:01:30;12.20;99.90
46356;DHT22;32066;49.474;11.106;2023-03-14T07:04:05;12.30;99.90
46356;DHT22;32066;49.474;11.106;2023-03-14T07:06:36;12.30;99.90
46356;DHT22;32066;49.474;11.106;2023-03-14T07:09:05;12.40;99.90
46356;DHT22;32066;49.474;11.106;2023-03-14T07:11:40;12.40;99.90
46356;DHT22;32066;49.474;11.106;2023-03-14T07:14:09;12.40;99.90
46356;DHT22;32066;49.474;11.106;2023-03-14T07:16:38;12.40;99.90
46356;DHT22;32066;49.474;11.106;2023-03-14T07:19:07;12.40;99.90
46356;DHT22;32066;49.474;11.106;2023-03-14T07:21:36;12.40;99.90
46356;DHT22;32066;49.474;11.106;2023-03-14T07:24:08;12.40;99.90
46356;DHT22;32066;49.474;11.106;2023-03-14T07:26:41;12.40;99.90
46356;DHT22;32066;49.474;11.106;2023-03-14T07:29:10;12.40;99.90
46356;DHT22;32066;49.474;11.106;2023-03-14T07:31:40;12.40;99.90
46356;DHT22;32066;49.474;11.106;2023-03-14T07:34:09;12.40;99.90
46356;DHT22;32066;49.474;11.106;2023-03-14T07:36:42;12.40;99.90
46356;DHT22;32066;49.474;11.106;2023-03-14T07:39:11;12.50;99.90
46356;DHT22;32066;49.474;11.106;2023-03-14T07:41:50;12.60;99.90
46356;DHT22;32066;49.474;11.106;2023-03-14T07:44:25;12.50;99.90
46356;DHT22;32066;49.474;11.106;2023-03-14T07:46:53;12.50;99.90
46356;DHT22;32066;49.474;11.106;2023-03-14T07:49:22;12.50;99.90
46356;DHT22;32066;49.474;11.106;2023-03-14T07:51:51;12.50;99.90
46356;DHT22;32066;49.474;11.106;2023-03-14T07:54:19;12.50;99.90
46356;DHT22;32066;49.474;11.106;2023-03-14T07:56:51;12.50;99.90
46356;DHT22;32066;49.474;11.106;2023-03-14T07:59:20;12.50;99.80
46356;DHT22;32066;49.474;11.106;2023-03-14T08:01:49;12.60;99.70
46356;DHT22;32066;49.474;11.106;2023-03-14T08:04:18;12.70;99.70
46356;DHT22;32066;49.474;11.106;2023-03-14T08:06:46;12.70;99.60
46356;DHT22;32066;49.474;11.106;2023-03-14T08:09:15;12.80;99.60
46356;DHT22;32066;49.474;11.106;2023-03-14T08:11:44;12.90;99.50
46356;DHT22;32066;49.474;11.106;2023-03-14T08:14:15;12.90;99.30
46356;DHT22;32066;49.474;11.106;2023-03-14T08:16:44;13.00;99.30
46356;DHT22;32066;49.474;11.106;2023-03-14T08:19:12;13.10;99.20
46356;DHT22;32066;49.474;11.106;2023-03-14T08:21:41;13.20;99.00
46356;DHT22;32066;49.474;11.106;2023-03-14T08:24:09;13.30;98.90
46356;DHT22;32066;49.474;11.106;2023-03-14T08:26:38;13.40;98.90
46356;DHT22;32066;49.474;11.106;2023-03-14T08:29:07;13.50;98.90
46356;DHT22;32066;49.474;11.106;2023-03-14T08:31:38;13.60;98.80
46356;DHT22;32066;49.474;11.106;2023-03-14T08:34:07;13.60;98.60
46356;DHT22;32066;49.474;11.106;2023-03-14T08:36:35;13.70;98.60
46356;DHT22;32066;49.474;11.106;2023-03-14T08:39:04;13.80;98.50
46356;DHT22;32066;49.474;11.106;2023-03-14T08:41:33;13.80;98.50
46356;DHT22;32066;49.474;11.106;2023-03-14T08:44:05;13.90;98.40
46356;DHT22;32066;49.474;11.106;2023-03-14T08:46:34;14.00;98.40
46356;DHT22;32066;49.474;11.106;2023-03-14T08:49:06;14.00;98.20
46356;DHT22;32066;49.474;11.106;2023-03-14T08:51:34;14.10;98.30
46356;DHT22;32066;49.474;11.106;2023-03-14T08:54:03;14.20;98.60
46356;DHT22;32066;49.474;11.106;2023-03-14T08:56:31;14.30;98.20
46356;DHT22;32066;49.474;11.106;2023-03-14T08:59:03;14.40;98.10
46356;DHT22;32066;49.474;11.106;2023-03-14T09:01:32;14.40;97.70
46356;DHT22;32066;49.474;11.106;2023-03-14T09:04:00;14.50;97.50
46356;DHT22;32066;49.474;11.106;2023-03-14T09:06:31;14.50;97.20
46356;DHT22;32066;49.474;11.106;2023-03-14T09:09:01;14.50;97.30
46356;DHT22;32066;49.474;11.106;2023-03-14T09:11:30;14.50;97.00
46356;DHT22;32066;49.474;11.106;2023-03-14T09:13:59;14.60;96.80
46356;DHT22;32066;49.474;11.106;2023-03-14T09:16:28;14.60;96.60
46356;DHT22;32066;49.474;11.106;2023-03-14T09:18:57;14.60;96.50
46356;DHT22;32066;49.474;11.106;2023-03-14T09:21:25;14.60;96.40
46356;DHT22;32066;49.474;11.106;2023-03-14T09:23:58;14.70;96.40
46356;DHT22;32066;49.474;11.106;2023-03-14T09:26:26;14.80;96.40
46356;DHT22;32066;49.474;11.106;2023-03-14T09:28:55;14.90;96.40
46356;DHT22;32066;49.474;11.106;2023-03-14T09:31:23;15.10;96.10
46356;DHT22;32066;49.474;11.106;2023-03-14T09:33:53;15.30;95.90
46356;DHT22;32066;49.474;11.106;2023-03-14T09:36:21;15.50;95.70
46356;DHT22;32066;49.474;11.106;2023-03-14T09:38:50;15.60;95.30
46356;DHT22;32066;49.474;11.106;2023-03-14T09:41:25;15.70;95.00
46356;DHT22;32066;49.474;11.106;2023-03-14T09:44:00;15.70;94.80
46356;DHT22;32066;49.474;11.106;2023-03-14T09:46:33;15.70;94.80
46356;DHT22;32066;49.474;11.106;2023-03-14T09:49:11;15.70;94.50
46356;DHT22;32066;49.474;11.106;2023-03-14T09:51:40;15.60;94.70
46356;DHT22;32066;49.474;11.106;2023-03-14T09:54:20;15.60;94.80
46356;DHT22;32066;49.474;11.106;2023-03-14T09:56:55;15.50;94.60
46356;DHT22;32066;49.474;11.106;2023-03-14T09:59:23;15.50;94.50
46356;DHT22;32066;49.474;11.106;2023-03-14T10:01:52;15.40;94.40
46356;DHT22;32066;49.474;11.106;2023-03-14T10:04:22;15.30;94.30
46356;DHT22;32066;49.474;11.106;2023-03-14T10:06:51;15.30;94.30
46356;DHT22;32066;49.474;11.106;2023-03-14T10:09:21;15.20;94.20
46356;DHT22;32066;49.474;11.106;2023-03-14T10:11:57;15.20;94.10
46356;DHT22;32066;49.474;11.106;2023-03-14T10:14:30;15.10;94.20
46356;DHT22;32066;49.474;11.106;2023-03-14T10:17:07;15.10;94.30
46356;DHT22;32066;49.474;11.106;2023-03-14T10:19:36;15.10;94.30
46356;DHT22;32066;49.474;11.106;2023-03-14T10:22:10;15.10;94.30
46356;DHT22;32066;49.474;11.106;2023-03-14T10:24:46;15.10;94.40
46356;DHT22;32066;49.474;11.106;2023-03-14T10:27:22;15.10;94.40
46356;DHT22;32066;49.474;11.106;2023-03-14T10:29:53;15.10;94.40
46356;DHT22;32066;49.474;11.106;2023-03-14T10:32:28;15.20;94.30
46356;DHT22;32066;49.474;11.106;2023-03-14T10:35:07;15.10;94.30
46356;DHT22;32066;49.474;11.106;2023-03-14T10:37:36;15.00;94.30
46356;DHT22;32066;49.474;11.106;2023-03-14T10:40:18;15.10;94.30
46356;DHT22;32066;49.474;11.106;2023-03-14T10:42:50;15.00;94.10
46356;DHT22;32066;49.474;11.106;2023-03-14T10:45:35;14.90;94.10
46356;DHT22;32066;49.474;11.106;2023-03-14T10:48:19;15.00;94.20
46356;DHT22;32066;49.474;11.106;2023-03-14T10:50:53;15.00;94.00
46356;DHT22;32066;49.474;11.106;2023-03-14T10:53:23;15.00;93.90
46356;DHT22;32066;49.474;11.106;2023-03-14T10:55:52;15.00;93.80
46356;DHT22;32066;49.474;11.106;2023-03-14T10:58:25;14.90;93.80
46356;DHT22;32066;49.474;11.106;2023-03-14T11:01:02;14.90;93.90
46356;DHT22;32066;49.474;11.106;2023-03-14T11:03:36;14.80;93.60
46356;DHT22;32066;49.474;11.106;2023-03-14T11:06:11;14.80;93.60
46356;DHT22;32066;49.474;11.106;2023-03-14T11:08:46;14.70;93.80
46356;DHT22;32066;49.474;11.106;2023-03-14T11:11:19;14.70;93.60
46356;DHT22;32066;49.474;11.106;2023-03-14T11:13:58;14.70;93.80
46356;DHT22;32066;49.474;11.106;2023-03-14T11:16:37;14.60;94.00
46356;DHT22;32066;49.474;11.106;2023-03-14T11:19:39;14.60;94.00
46356;DHT22;32066;49.474;11.106;2023-03-14T11:22:19;14.60;93.90
46356;DHT22;32066;49.474;11.106;2023-03-14T11:24:55;14.60;94.40
46356;DHT22;32066;49.474;11.106;2023-03-14T11:27:37;14.70;94.30
46356;DHT22;32066;49.474;11.106;2023-03-14T11:30:18;14.70;94.20
46356;DHT22;32066;49.474;11.106;2023-03-14T11:32:50;14.70;94.20
46356;DHT22;32066;49.474;11.106;2023-03-14T11:35:25;14.70;94.40
46356;DHT22;32066;49.474;11.106;2023-03-14T11:38:00;14.70;94.70
46356;DHT22;32066;49.474;11.106;2023-03-14T11:40:31;14.90;94.90
46356;DHT22;32066;49.474;11.106;2023-03-14T11:43:08;15.20;95.40
46356;DHT22;32066;49.474;11.106;2023-03-14T11:45:43;15.50;95.40
46356;DHT22;32066;49.474;11.106;2023-03-14T11:48:22;15.90;95.50
46356;DHT22;32066;49.474;11.106;2023-03-14T11:50:56;16.20;95.20
46356;DHT22;32066;49.474;11.106;2023-03-14T11:53:40;16.40;95.00
46356;DHT22;32066;49.474;11.106;2023-03-14T11:56:16;16.60;94.50
46356;DHT22;32066;49.474;11.106;2023-03-14T11:58:51;16.70;94.00
46356;DHT22;32066;49.474;11.106;2023-03-14T12:01:31;16.70;93.80
46356;DHT22;32066;49.474;11.106;2023-03-14T12:04:07;16.70;93.50
46356;DHT22;32066;49.474;11.106;2023-03-14T12:06:44;16.60;93.40
46356;DHT22;32066;49.474;11.106;2023-03-14T12:09:16;16.50;93.30
46356;DHT22;32066;49.474;11.106;2023-03-14T12:11:49;16.50;93.40
46356;DHT22;32066;49.474;11.106;2023-03-14T12:14:24;16.50;93.40
46356;DHT22;32066;49.474;11.106;2023-03-14T12:16:58;16.50;93.30
46356;DHT22;32066;49.474;11.106;2023-03-14T12:19:34;16.70;93.70
46356;DHT22;32066;49.474;11.106;2023-03-14T12:22:25;16.90;93.70
46356;DHT22;32066;49.474;11.106;2023-03-14T12:24:59;17.10;93.40
46356;DHT22;32066;49.474;11.106;2023-03-14T12:27:45;17.20;93.30
46356;DHT22;32066;49.474;11.106;2023-03-14T12:30:23;17.20;92.90
46356;DHT22;32066;49.474;11.106;2023-03-14T12:33:19;17.20;92.40
46356;DHT22;32066;49.474;11.106;2023-03-14T12:35:50;17.10;92.00
46356;DHT22;32066;49.474;11.106;2023-03-14T12:38:24;17.00;91.80
46356;DHT22;32066;49.474;11.106;2023-03-14T12:41:00;17.00;91.40
46356;DHT22;32066;49.474;11.106;2023-03-14T12:43:33;17.00;91.30
46356;DHT22;32066;49.474;11.106;2023-03-14T12:46:19;17.00;91.30
46356;DHT22;32066;49.474;11.106;2023-03-14T12:48:54;16.90;91.20
46356;DHT22;32066;49.474;11.106;2023-03-14T12:51:29;16.90;90.80
46356;DHT22;32066;49.474;11.106;2023-03-14T12:54:25;16.90;90.90
46356;DHT22;32066;49.474;11.106;2023-03-14T12:57:15;16.80;90.70
46356;DHT22;32066;49.474;11.106;2023-03-14T12:59:50;16.80;90.60
46356;DHT22;32066;49.474;11.106;2023-03-14T13:02:23;16.60;90.50
46356;DHT22;32066;49.474;11.106;2023-03-14T13:05:02;16.50;90.30
46356;DHT22;32066;49.474;11.106;2023-03-14T13:10:21;16.20;91.00
46356;DHT22;32066;49.474;11.106;2023-03-14T13:12:54;16.10;91.50
46356;DHT22;32066;49.474;11.106;2023-03-14T13:15:27;16.00;91.60
46356;DHT22;32066;49.474;11.106;2023-03-14T13:18:02;16.00;91.70
46356;DHT22;32066;49.474;11.106;2023-03-14T13:20:36;15.90;91.80
46356;DHT22;32066;49.474;11.106;2023-03-14T13:23:19;15.80;91.70
46356;DHT22;32066;49.474;11.106;2023-03-14T13:25:48;15.80;91.70
46356;DHT22;32066;49.474;11.106;2023-03-14T13:28:18;15.70;91.70
46356;DHT22;32066;49.474;11.106;2023-03-14T13:30:48;15.70;92.00
46356;DHT22;32066;49.474;11.106;2023-03-14T13:33:18;15.50;92.30
46356;DHT22;32066;49.474;11.106;2023-03-14T13:35:54;15.50;92.60
46356;DHT22;32066;49.474;11.106;2023-03-14T13:38:25;15.30;93.10
46356;DHT22;32066;49.474;11.106;2023-03-14T13:40:55;15.30;93.30
46356;DHT22;32066;49.474;11.106;2023-03-14T13:43:29;15.30;93.40
46356;DHT22;32066;49.474;11.106;2023-03-14T13:46:03;15.30;93.50
46356;DHT22;32066;49.474;11.106;2023-03-14T13:48:35;15.20;93.60
46356;DHT22;32066;49.474;11.106;2023-03-14T13:51:10;15.10;93.80
46356;DHT22;32066;49.474;11.106;2023-03-14T13:53:43;15.10;93.90
46356;DHT22;32066;49.474;11.106;2023-03-14T13:56:13;15.10;94.10
46356;DHT22;32066;49.474;11.106;2023-03-14T13:58:42;15.00;94.40
46356;DHT22;32066;49.474;11.106;2023-03-14T14:01:14;14.90;94.60
46356;DHT22;32066;49.474;11.106;2023-03-14T14:03:45;14.80;95.10
46356;DHT22;32066;49.474;11.106;2023-03-14T14:06:26;14.80;94.90
46356;DHT22;32066;49.474;11.106;2023-03-14T14:08:56;14.70;95.30
46356;DHT22;32066;49.474;11.106;2023-03-14T14:11:36;14.60;95.30
46356;DHT22;32066;49.474;11.106;2023-03-14T14:14:10;14.60;95.60
46356;DHT22;32066;49.474;11.106;2023-03-14T14:16:40;14.50;95.80
46356;DHT22;32066;49.474;11.106;2023-03-14T14:19:11;14.60;95.70
46356;DHT22;32066;49.474;11.106;2023-03-14T14:21:42;14.40;95.80
46356;DHT22;32066;49.474;11.106;2023-03-14T14:24:13;14.30;96.20
46356;DHT22;32066;49.474;11.106;2023-03-14T14:26:47;14.40;96.10
46356;DHT22;32066;49.474;11.106;2023-03-14T14:29:25;14.30;96.20
46356;DHT22;32066;49.474;11.106;2023-03-14T14:32:01;14.40;96.30
46356;DHT22;32066;49.474;11.106;2023-03-14T14:34:38;14.30;96.40
46356;DHT22;32066;49.474;11.106;2023-03-14T14:37:21;14.40;96.40
46356;DHT22;32066;49.474;11.106;2023-03-14T14:39:52;14.40;96.10
46356;DHT22;32066;49.474;11.106;2023-03-14T14:42:25;14.40;96.00
46356;DHT22;32066;49.474;11.106;2023-03-14T14:44:55;14.20;96.20
46356;DHT22;32066;49.474;11.106;2023-03-14T14:47:27;14.10;96.20
46356;DHT22;32066;49.474;11.106;2023-03-14T14:50:00;14.10;96.10
46356;DHT22;32066;49.474;11.106;2023-03-14T14:52:44;14.10;96.00
46356;DHT22;32066;49.474;11.106;2023-03-14T14:55:18;14.10;95.60
46356;DHT22;32066;49.474;11.106;2023-03-14T14:57:51;14.10;95.70
46356;DHT22;32066;49.474;11.106;2023-03-14T15:00:23;14.00;95.60
46356;DHT22;32066;49.474;11.106;2023-03-14T15:02:54;13.90;95.60
46356;DHT22;32066;49.474;11.106;2023-03-14T15:05:25;13.90;95.70
46356;DHT22;32066;49.474;11.106;2023-03-14T15:07:58;13.90;95.70
46356;DHT22;32066;49.474;11.106;2023-03-14T15:10:26;13.90;95.60
46356;DHT22;32066;49.474;11.106;2023-03-14T15:12:55;13.70;96.00
46356;DHT22;32066;49.474;11.106;2023-03-14T15:15:24;13.60;96.10
46356;DHT22;32066;49.474;11.106;2023-03-14T15:17:52;13.50;96.10
46356;DHT22;32066;49.474;11.106;2023-03-14T15:20:21;13.40;96.10
46356;DHT22;32066;49.474;11.106;2023-03-14T15:22:50;13.40;95.90
46356;DHT22;32066;49.474;11.106;2023-03-14T15:25:21;13.40;95.90
46356;DHT22;32066;49.474;11.106;2023-03-14T15:27:50;13.40;95.70
46356;DHT22;32066;49.474;11.106;2023-03-14T15:30:19;13.30;95.50
46356;DHT22;32066;49.474;11.106;2023-03-14T15:32:47;13.40;95.20
46356;DHT22;32066;49.474;11.106;2023-03-14T15:35:16;13.40;95.10
46356;DHT22;32066;49.474;11.106;2023-03-14T15:37:45;13.20;95.20
46356;DHT22;32066;49.474;11.106;2023-03-14T15:40:15;13.20;94.80
46356;DHT22;32066;49.474;11.106;2023-03-14T15:42:46;13.30;94.60
46356;DHT22;32066;49.474;11.106;2023-03-14T15:45:15;13.10;94.60
46356;DHT22;32066;49.474;11.106;2023-03-14T15:47:44;13.00;94.80
46356;DHT22;32066;49.474;11.106;2023-03-14T15:50:12;13.00;94.70
46356;DHT22;32066;49.474;11.106;2023-03-14T15:52:41;13.00;94.60
46356;DHT22;32066;49.474;11.106;2023-03-14T15:55:10;13.10;94.40
46356;DHT22;32066;49.474;11.106;2023-03-14T15:57:40;13.10;94.10